Time;durP1;ratioP1;P1;durP2;ratioP2;P2;SDS_P1;SDS_P2;PMS_P1;PMS_P2;Temp;Humidity;BMP_temperature;BMP_pressure;BME280_temperature;BME280_humidity;BME280_pressure;Samples;Min_cycle;Max_cycle;Signal;HPM_P1;HPM_P2
2022/12/24 00:00:02;;;;;;;1.50;0.50;;;12.50;99.90;;;;;;5062645;28;20338;-84
2022/12/24 00:02:27;;;;;;;0.60;0.60;;;12.50;99.90;;;;;;5045702;28;20105;-84
2022/12/24 00:04:53;;;;;;;1.30;0.83;;;12.50;99.90;;;;;;5060955;28;20946;-84
2022/12/24 00:07:19;;;;;;;0.20;0.20;;;12.60;99.90;;;;;;5052754;28;20091;-85
2022/12/24 00:09:44;;;;;;;0.83;0.67;;;12.60;99.90;;;;;;5059957;28;20116;-85
2022/12/24 00:12:10;;;;;;;1.50;1.40;;;12.50;99.90;;;;;;5065882;28;20119;-85
2022/12/24 00:14:36;;;;;;;2.77;1.47;;;12.40;99.90;;;;;;5053135;28;20078;-85
2022/12/24 00:17:01;;;;;;;1.92;0.93;;;12.30;99.90;;;;;;5064273;28;20021;-85
2022/12/24 00:19:27;;;;;;;1.70;1.60;;;12.20;99.90;;;;;;5060334;28;20040;-85
2022/12/24 00:21:53;;;;;;;7.05;1.00;;;12.20;99.90;;;;;;5062370;28;20035;-85
2022/12/24 00:24:18;;;;;;;0.20;0.20;;;12.30;99.90;;;;;;5049623;28;20025;-85
2022/12/24 00:26:44;;;;;;;0.50;0.40;;;12.30;99.90;;;;;;5047547;28;20099;-85
2022/12/24 00:29:10;;;;;;;0.40;0.40;;;12.30;99.90;;;;;;5052107;28;20025;-85
2022/12/24 00:31:36;;;;;;;0.43;0.43;;;12.30;99.90;;;;;;5051091;28;20036;-86
2022/12/24 00:34:02;;;;;;;1.80;0.97;;;12.40;99.90;;;;;;5053665;28;20568;-88
2022/12/24 00:36:27;;;;;;;0.40;0.40;;;12.40;99.90;;;;;;5055829;28;20844;-87
2022/12/24 00:38:53;;;;;;;0.20;0.20;;;12.50;99.90;;;;;;5065273;28;20104;-86
2022/12/24 00:41:25;;;;;;;1.73;1.63;;;12.40;99.90;;;;;;5055008;28;20025;-86
2022/12/24 00:43:55;;;;;;;0.93;0.93;;;12.40;99.90;;;;;;5061509;28;20033;-87
2022/12/24 00:46:21;;;;;;;2.08;1.00;;;12.30;99.90;;;;;;5047016;28;20031;-87
2022/12/24 00:48:47;;;;;;;1.10;0.95;;;12.20;99.90;;;;;;5053650;28;20440;-88
2022/12/24 00:51:14;;;;;;;3.08;2.58;;;12.20;99.90;;;;;;5064826;28;20119;-85
2022/12/24 00:53:40;;;;;;;2.40;2.20;;;12.20;99.90;;;;;;5059685;28;20033;-85
2022/12/24 00:56:06;;;;;;;5.07;4.13;;;12.30;99.90;;;;;;5046147;28;20049;-84
2022/12/24 00:58:32;;;;;;;4.35;2.70;;;12.30;99.90;;;;;;5056620;28;20040;-85
2022/12/24 01:00:58;;;;;;;2.27;2.00;;;12.20;99.90;;;;;;5057232;28;20025;-86
2022/12/24 01:03:34;;;;;;;8.73;4.28;;;12.30;99.90;;;;;;5053774;28;20025;-86
2022/12/24 01:06:00;;;;;;;8.77;4.50;;;12.30;99.90;;;;;;5064242;28;20135;-87
2022/12/24 01:08:26;;;;;;;2.97;1.00;;;12.30;99.90;;;;;;5056412;28;20100;-86
2022/12/24 01:10:51;;;;;;;2.07;1.87;;;12.30;99.90;;;;;;5068182;28;20032;-86
2022/12/24 01:13:17;;;;;;;1.52;1.42;;;12.20;99.90;;;;;;5067819;28;20028;-87
2022/12/24 01:15:43;;;;;;;1.88;1.65;;;12.30;99.90;;;;;;5060364;28;20040;-86
2022/12/24 01:18:08;;;;;;;1.37;1.27;;;12.20;99.90;;;;;;5050672;28;20033;-86
2022/12/24 01:20:34;;;;;;;1.52;0.95;;;12.20;99.90;;;;;;5057310;28;20059;-86
2022/12/24 01:23:00;;;;;;;0.25;0.25;;;12.20;99.90;;;;;;5049217;28;20040;-87
2022/12/24 01:25:27;;;;;;;0.77;0.65;;;12.20;99.90;;;;;;5050101;28;20057;-87
2022/12/24 01:27:52;;;;;;;;;;;12.10;99.90;;;;;;5063653;28;20060;-88
2022/12/24 01:30:18;;;;;;;0.43;0.43;;;12.10;99.90;;;;;;5069859;28;19951;-88
2022/12/24 01:32:44;;;;;;;0.28;0.28;;;12.00;99.90;;;;;;5055404;28;20090;-88
2022/12/24 01:35:11;;;;;;;0.35;0.22;;;11.80;99.90;;;;;;5056399;28;20033;-88
2022/12/24 01:37:37;;;;;;;0.43;0.43;;;11.80;99.90;;;;;;5049061;28;20503;-88
2022/12/24 01:45:39;;;;;;;0.25;0.25;;;11.90;99.90;;;;;;5051811;28;20024;-88
2022/12/24 01:48:20;;;;;;;0.20;0.20;;;12.00;99.90;;;;;;5059923;28;20055;-90
2022/12/24 01:50:47;;;;;;;0.40;0.40;;;11.90;99.90;;;;;;5058720;28;20033;-88
2022/12/24 01:53:13;;;;;;;;;;;11.90;99.90;;;;;;5058192;28;20029;-87
2022/12/24 01:55:39;;;;;;;0.08;0.08;;;12.00;99.90;;;;;;5069258;28;20022;-87
2022/12/24 01:58:07;;;;;;;1.75;0.50;;;11.90;99.90;;;;;;5054628;28;20060;-87
2022/12/24 02:00:32;;;;;;;0.65;0.38;;;11.90;99.90;;;;;;5049898;28;20033;-87
2022/12/24 02:02:58;;;;;;;1.25;0.50;;;12.00;99.90;;;;;;5063307;28;20618;-88
2022/12/24 02:05:48;;;;;;;0.50;0.47;;;11.90;99.90;;;;;;5069733;28;20108;-88
2022/12/24 02:08:16;;;;;;;3.22;1.02;;;11.90;99.90;;;;;;5053024;28;20126;-89
2022/12/24 02:10:41;;;;;;;;;;;11.70;99.90;;;;;;5057561;28;20029;-87
2022/12/24 02:13:07;;;;;;;0.27;0.27;;;11.70;99.90;;;;;;5050080;28;20866;-88
2022/12/24 02:15:54;;;;;;;3.65;1.45;;;11.80;99.90;;;;;;5069958;28;20039;-88
2022/12/24 02:18:37;;;;;;;0.43;0.43;;;11.80;99.90;;;;;;5065491;28;20032;-87
2022/12/24 02:21:35;;;;;;;1.23;1.23;;;11.80;99.90;;;;;;5060637;28;20111;-87
2022/12/24 02:24:45;;;;;;;0.10;0.10;;;11.90;99.90;;;;;;5063095;28;20037;-87
2022/12/24 02:27:36;;;;;;;0.35;0.35;;;11.90;99.90;;;;;;5046587;28;20036;-87
2022/12/24 02:30:34;;;;;;;0.80;0.45;;;11.90;99.90;;;;;;5055607;28;20864;-87
2022/12/24 02:33:27;;;;;;;0.90;0.90;;;11.90;99.90;;;;;;5058311;28;20041;-87
2022/12/24 02:36:12;;;;;;;0.10;0.10;;;11.90;99.90;;;;;;5048764;28;20029;-87
2022/12/24 02:39:07;;;;;;;0.40;0.40;;;11.90;99.90;;;;;;5056403;28;20033;-87
2022/12/24 02:44:25;;;;;;;0.52;0.52;;;11.80;99.90;;;;;;5064863;28;20102;-87
2022/12/24 02:46:52;;;;;;;0.20;0.20;;;11.90;99.90;;;;;;5053966;28;20036;-88
2022/12/24 02:49:18;;;;;;;0.38;0.38;;;11.90;99.90;;;;;;5056160;28;20033;-87
2022/12/24 02:51:44;;;;;;;0.52;0.52;;;12.00;99.90;;;;;;5049972;28;20035;-86
2022/12/24 02:54:11;;;;;;;0.30;0.30;;;11.90;99.90;;;;;;5057977;28;20033;-86
2022/12/24 02:56:52;;;;;;;3.90;0.65;;;11.90;99.90;;;;;;5048695;28;20035;-87
2022/12/24 02:59:41;;;;;;;0.00;0.00;;;11.90;99.90;;;;;;5059184;28;20761;-87
2022/12/24 03:02:33;;;;;;;3.60;0.30;;;11.90;99.90;;;;;;5062715;28;20028;-87
2022/12/24 03:05:17;;;;;;;0.00;0.00;;;11.90;99.90;;;;;;5022991;28;20044;-87
2022/12/24 03:08:02;;;;;;;4.95;0.82;;;11.90;99.90;;;;;;5063131;28;20040;-88
2022/12/24 03:10:34;;;;;;;0.15;0.15;;;12.00;99.90;;;;;;5057413;28;20032;-87
2022/12/24 03:13:09;;;;;;;0.85;0.57;;;11.90;99.90;;;;;;5050460;28;20039;-87
2022/12/24 03:15:37;;;;;;;0.45;0.32;;;12.00;99.90;;;;;;5057836;28;20040;-88
2022/12/24 03:18:07;;;;;;;0.25;0.25;;;12.00;99.90;;;;;;5048425;28;20055;-86
2022/12/24 03:20:43;;;;;;;1.58;0.22;;;12.00;99.90;;;;;;5060487;28;20036;-87
2022/12/24 03:23:09;;;;;;;0.28;0.13;;;12.00;99.90;;;;;;5062352;28;20451;-87
2022/12/24 03:25:39;;;;;;;0.68;0.30;;;12.00;99.90;;;;;;5063388;28;20024;-87
2022/12/24 03:28:06;;;;;;;0.73;0.68;;;12.00;99.90;;;;;;5054256;28;20127;-87
2022/12/24 03:30:32;;;;;;;0.00;0.00;;;12.00;99.90;;;;;;5064249;28;20094;-86
2022/12/24 03:32:58;;;;;;;0.10;0.10;;;11.90;99.90;;;;;;5054253;28;20033;-87
2022/12/24 03:35:24;;;;;;;0.50;0.50;;;12.00;99.90;;;;;;5052947;28;20545;-86
2022/12/24 03:37:50;;;;;;;0.38;0.38;;;11.90;99.90;;;;;;5055096;28;20064;-86
2022/12/24 03:40:16;;;;;;;0.32;0.20;;;12.00;99.90;;;;;;5051812;28;20052;-87
2022/12/24 03:42:42;;;;;;;0.13;0.13;;;12.00;99.90;;;;;;5053381;28;20445;-86
2022/12/24 03:45:08;;;;;;;0.10;0.10;;;11.90;99.90;;;;;;5058228;28;20109;-87
2022/12/24 03:47:34;;;;;;;0.37;0.27;;;12.00;99.90;;;;;;5064157;28;20028;-86
2022/12/24 03:49:59;;;;;;;0.50;0.50;;;12.00;99.90;;;;;;5063629;28;20039;-86
2022/12/24 03:52:25;;;;;;;0.40;0.40;;;12.00;99.90;;;;;;5053349;28;20634;-86
2022/12/24 03:54:51;;;;;;;0.10;0.10;;;12.00;99.90;;;;;;5051194;28;20033;-86
2022/12/24 03:57:16;;;;;;;0.10;0.10;;;11.90;99.90;;;;;;5047833;28;20032;-85
2022/12/24 03:59:43;;;;;;;0.22;0.22;;;11.90;99.90;;;;;;5047303;28;20642;-86
2022/12/24 04:02:08;;;;;;;3.15;0.30;;;11.90;99.90;;;;;;5060569;28;20425;-86
2022/12/24 04:04:36;;;;;;;0.60;0.60;;;11.90;99.90;;;;;;5046600;28;20098;-83
2022/12/24 04:07:03;;;;;;;0.55;0.32;;;11.90;99.90;;;;;;5065643;28;20048;-83
2022/12/24 04:09:29;;;;;;;0.25;0.17;;;11.80;99.90;;;;;;5064482;28;20084;-85
2022/12/24 04:11:55;;;;;;;0.22;0.13;;;11.90;99.90;;;;;;5065823;28;20574;-85
2022/12/24 04:14:20;;;;;;;1.90;0.75;;;11.90;99.90;;;;;;5066800;28;20029;-85
2022/12/24 04:16:46;;;;;;;0.15;0.15;;;11.80;99.90;;;;;;5053431;28;20029;-87
2022/12/24 04:19:12;;;;;;;0.50;0.43;;;11.90;99.90;;;;;;5054596;28;20033;-88
2022/12/24 04:21:37;;;;;;;0.52;0.52;;;11.90;99.90;;;;;;5055813;28;20028;-87
2022/12/24 04:24:03;;;;;;;1.58;0.68;;;11.90;99.90;;;;;;5061879;28;20036;-89
2022/12/24 04:26:29;;;;;;;0.10;0.10;;;11.80;99.90;;;;;;5050301;28;20069;-88
2022/12/24 04:28:55;;;;;;;0.40;0.15;;;11.80;99.90;;;;;;5046659;28;20634;-86
2022/12/24 04:31:20;;;;;;;0.10;0.10;;;11.90;99.90;;;;;;5048128;28;20086;-87
2022/12/24 04:33:46;;;;;;;0.10;0.10;;;11.80;99.90;;;;;;5055480;28;20029;-88
2022/12/24 04:36:15;;;;;;;2.72;1.63;;;11.80;99.90;;;;;;5053904;28;20032;-88
2022/12/24 04:38:42;;;;;;;0.17;0.17;;;11.80;99.90;;;;;;5059362;28;20032;-89
2022/12/24 04:41:19;;;;;;;0.75;0.75;;;11.80;99.90;;;;;;5060827;28;20033;-90
2022/12/24 04:43:45;;;;;;;0.10;0.10;;;11.80;99.90;;;;;;5062459;28;20037;-88
2022/12/24 04:46:17;;;;;;;0.28;0.28;;;11.90;99.90;;;;;;5051794;28;20919;-87
2022/12/24 04:48:44;;;;;;;0.22;0.22;;;11.80;99.90;;;;;;5057980;28;20024;-87
2022/12/24 04:51:10;;;;;;;;;;;11.80;99.90;;;;;;5060871;28;20417;-87
2022/12/24 04:53:37;;;;;;;0.10;0.10;;;11.90;99.90;;;;;;5054342;28;19912;-87
2022/12/24 04:56:03;;;;;;;;;;;11.80;99.90;;;;;;5069252;28;20028;-87
2022/12/24 04:58:29;;;;;;;0.43;0.43;;;11.80;99.90;;;;;;5056715;28;19951;-87
2022/12/24 05:00:55;;;;;;;0.63;0.53;;;11.80;99.90;;;;;;5069879;28;20427;-88
2022/12/24 05:03:21;;;;;;;0.03;0.03;;;11.80;99.90;;;;;;5066848;28;21145;-87
2022/12/24 05:05:47;;;;;;;0.20;0.20;;;11.80;99.90;;;;;;5059066;28;20572;-89
2022/12/24 05:08:13;;;;;;;2.80;0.40;;;11.80;99.90;;;;;;5070154;28;20063;-89
2022/12/24 05:10:39;;;;;;;0.25;0.25;;;11.80;99.90;;;;;;5061794;28;20066;-89
2022/12/24 05:13:04;;;;;;;0.10;0.10;;;11.80;99.90;;;;;;5058787;28;20036;-88
2022/12/24 05:15:30;;;;;;;3.78;1.25;;;11.80;99.90;;;;;;5071438;28;20025;-87
2022/12/24 05:17:57;;;;;;;0.10;0.10;;;11.70;99.90;;;;;;5062954;28;20041;-86
2022/12/24 05:20:23;;;;;;;0.30;0.30;;;11.70;99.90;;;;;;5059903;28;20035;-85
2022/12/24 05:28:21;;;;;;;0.10;0.10;;;11.80;99.90;;;;;;5056425;28;20043;-85
2022/12/24 05:30:47;;;;;;;0.17;0.17;;;11.80;99.90;;;;;;5049694;28;20025;-85
2022/12/24 05:33:12;;;;;;;0.10;0.10;;;11.80;99.90;;;;;;5056825;28;20119;-85
2022/12/24 05:35:38;;;;;;;2.50;0.38;;;11.80;99.90;;;;;;5055614;28;20025;-86
2022/12/24 05:38:04;;;;;;;0.20;0.20;;;11.80;99.90;;;;;;5059608;28;20071;-85
2022/12/24 05:40:29;;;;;;;0.13;0.13;;;11.80;99.90;;;;;;5068789;28;20859;-85
2022/12/24 05:42:55;;;;;;;0.08;0.08;;;11.90;99.90;;;;;;5060836;28;20043;-85
2022/12/24 05:45:21;;;;;;;0.52;0.52;;;11.90;99.90;;;;;;5063899;28;20025;-85
2022/12/24 05:47:46;;;;;;;8.13;1.20;;;11.90;99.90;;;;;;5055177;28;20738;-86
2022/12/24 05:50:12;;;;;;;0.40;0.30;;;11.90;99.90;;;;;;5065812;28;20041;-85
2022/12/24 05:52:38;;;;;;;0.50;0.50;;;11.90;99.90;;;;;;5069077;28;20047;-86
2022/12/24 05:55:04;;;;;;;0.30;0.30;;;11.90;99.90;;;;;;5066017;28;20416;-85
2022/12/24 05:57:29;;;;;;;0.20;0.20;;;11.90;99.90;;;;;;5060007;28;20594;-85
2022/12/24 05:59:55;;;;;;;0.35;0.22;;;11.90;99.90;;;;;;5066385;28;20032;-86
2022/12/24 06:02:21;;;;;;;3.10;0.97;;;11.90;99.90;;;;;;5057576;28;20029;-86
2022/12/24 06:04:46;;;;;;;0.82;0.80;;;11.80;99.90;;;;;;5056581;28;20124;-85
2022/12/24 06:07:12;;;;;;;0.25;0.25;;;11.90;99.90;;;;;;5063482;28;20055;-86
2022/12/24 06:09:38;;;;;;;0.00;0.00;;;11.90;99.90;;;;;;5063127;28;20102;-85
2022/12/24 06:12:04;;;;;;;0.40;0.40;;;11.90;99.90;;;;;;5049983;28;20033;-87
2022/12/24 06:14:29;;;;;;;0.20;0.20;;;11.80;99.90;;;;;;5053778;28;20024;-87
2022/12/24 06:16:55;;;;;;;0.10;0.10;;;11.90;99.90;;;;;;5069790;28;20060;-88
2022/12/24 06:19:20;;;;;;;0.43;0.43;;;11.80;99.90;;;;;;5054631;28;20024;-86
2022/12/24 06:21:46;;;;;;;0.17;0.17;;;11.90;99.90;;;;;;5056378;28;20021;-88
2022/12/24 06:24:12;;;;;;;2.70;1.73;;;11.80;99.90;;;;;;5058623;28;20029;-87
2022/12/24 06:26:37;;;;;;;0.35;0.35;;;11.80;99.90;;;;;;5067176;28;20100;-87
2022/12/24 06:29:03;;;;;;;0.38;0.38;;;11.80;99.90;;;;;;5056529;28;20024;-87
2022/12/24 06:31:29;;;;;;;0.10;0.10;;;11.70;99.90;;;;;;5058455;28;20024;-89
2022/12/24 06:33:54;;;;;;;0.10;0.10;;;11.70;99.90;;;;;;5064226;28;20052;-88
2022/12/24 06:36:22;;;;;;;0.13;0.13;;;11.60;99.90;;;;;;5051539;28;20042;-87
2022/12/24 06:38:49;;;;;;;0.17;0.17;;;11.60;99.90;;;;;;5047579;28;20551;-86
2022/12/24 06:41:16;;;;;;;2.35;1.27;;;11.60;99.90;;;;;;5062696;28;20036;-86
2022/12/24 06:43:47;;;;;;;8.50;0.93;;;11.70;99.90;;;;;;5058650;28;20028;-87
2022/12/24 06:46:13;;;;;;;0.30;0.30;;;11.70;99.90;;;;;;5052712;28;20723;-84
2022/12/24 06:48:39;;;;;;;0.10;0.10;;;11.70;99.90;;;;;;5057491;28;20760;-83
2022/12/24 06:51:05;;;;;;;0.23;0.23;;;11.70;99.90;;;;;;5058467;28;20302;-86
2022/12/24 06:53:31;;;;;;;0.28;0.28;;;11.70;99.90;;;;;;5050690;28;20043;-85
2022/12/24 06:56:01;;;;;;;0.20;0.20;;;11.80;99.90;;;;;;5057491;28;20033;-86
2022/12/24 06:58:27;;;;;;;2.47;0.95;;;11.80;99.90;;;;;;5063081;28;20032;-85
2022/12/24 07:00:53;;;;;;;0.07;0.07;;;11.80;99.90;;;;;;5066247;28;20034;-84
2022/12/24 07:03:18;;;;;;;1.50;0.50;;;11.80;99.90;;;;;;5062480;28;20115;-83
2022/12/24 07:05:44;;;;;;;3.88;0.52;;;11.70;99.90;;;;;;5058299;28;20033;-85
2022/12/24 07:08:10;;;;;;;0.10;0.10;;;11.70;99.90;;;;;;5063367;28;20110;-79
2022/12/24 07:10:36;;;;;;;0.10;0.10;;;11.70;99.90;;;;;;5057819;28;20036;-78
2022/12/24 07:13:01;;;;;;;1.67;0.35;;;11.70;99.90;;;;;;5046595;28;20033;-79
2022/12/24 07:15:27;;;;;;;0.03;0.03;;;11.80;99.90;;;;;;5049728;28;20025;-81
2022/12/24 07:17:52;;;;;;;0.10;0.10;;;11.80;99.90;;;;;;5048632;28;20039;-80
2022/12/24 07:20:18;;;;;;;0.63;0.63;;;11.70;99.90;;;;;;5059056;28;20043;-79
2022/12/24 07:22:44;;;;;;;1.05;0.95;;;11.70;99.90;;;;;;5059015;28;20068;-81
2022/12/24 07:25:10;;;;;;;0.10;0.10;;;11.70;99.90;;;;;;5056516;28;20025;-81
2022/12/24 07:27:36;;;;;;;0.10;0.10;;;11.80;99.90;;;;;;5049806;28;20016;-81
2022/12/24 07:30:03;;;;;;;0.17;0.17;;;11.80;99.90;;;;;;5067222;28;20291;-79
2022/12/24 07:32:29;;;;;;;0.52;0.52;;;11.80;99.90;;;;;;5064372;28;20037;-79
2022/12/24 07:34:54;;;;;;;0.10;0.10;;;11.80;99.90;;;;;;5065975;28;20119;-79
2022/12/24 07:37:20;;;;;;;0.10;0.10;;;11.80;99.90;;;;;;5060723;28;20032;-79
2022/12/24 07:39:45;;;;;;;0.10;0.10;;;11.80;99.90;;;;;;5062811;28;20037;-80
2022/12/24 07:42:11;;;;;;;0.00;0.00;;;11.80;99.90;;;;;;5056833;28;20773;-81
2022/12/24 07:44:37;;;;;;;0.50;0.50;;;11.70;99.90;;;;;;5059511;28;20036;-81
2022/12/24 07:47:02;;;;;;;0.17;0.17;;;11.60;99.90;;;;;;5066165;28;20035;-80
2022/12/24 07:49:28;;;;;;;0.10;0.10;;;11.70;99.90;;;;;;5056728;28;20062;-81
2022/12/24 07:51:54;;;;;;;0.22;0.22;;;11.70;99.90;;;;;;5060458;28;20031;-80
2022/12/24 07:54:20;;;;;;;1.98;0.70;;;11.60;99.90;;;;;;5061720;28;20040;-79
2022/12/24 07:56:45;;;;;;;0.30;0.30;;;11.50;99.90;;;;;;5062468;28;20595;-81
2022/12/24 07:59:14;;;;;;;0.10;0.10;;;11.60;99.90;;;;;;5065963;28;20035;-82
2022/12/24 08:01:41;;;;;;;0.10;0.10;;;11.60;99.90;;;;;;5062451;28;20035;-82
2022/12/24 08:04:07;;;;;;;;;;;11.50;99.90;;;;;;5063705;28;20040;-80
2022/12/24 08:06:32;;;;;;;0.13;0.13;;;11.50;99.90;;;;;;5061041;28;19924;-80
2022/12/24 08:08:58;;;;;;;0.20;0.20;;;11.40;99.90;;;;;;5053947;28;20025;-80
2022/12/24 08:11:24;;;;;;;0.57;0.57;;;11.30;99.90;;;;;;5062521;28;20041;-80
2022/12/24 08:13:49;;;;;;;0.95;0.88;;;11.40;99.90;;;;;;5054955;28;20029;-80
2022/12/24 08:16:15;;;;;;;1.80;0.43;;;11.50;99.90;;;;;;5064016;28;20028;-80
2022/12/24 08:18:41;;;;;;;0.10;0.10;;;11.60;99.90;;;;;;5056045;28;20409;-80
2022/12/24 08:21:07;;;;;;;0.40;0.40;;;11.50;99.90;;;;;;5067352;28;20074;-81
2022/12/24 08:23:34;;;;;;;1.45;0.40;;;11.60;99.90;;;;;;5059524;28;20448;-80
2022/12/24 08:25:59;;;;;;;0.30;0.30;;;11.70;99.90;;;;;;5059804;28;20060;-79
2022/12/24 08:28:25;;;;;;;0.20;0.20;;;11.80;99.90;;;;;;5061212;28;20072;-79
2022/12/24 08:30:51;;;;;;;1.30;0.60;;;11.80;99.90;;;;;;5064544;28;20029;-81
2022/12/24 08:33:18;;;;;;;0.22;0.22;;;12.00;99.90;;;;;;5056368;28;20071;-82
2022/12/24 08:35:51;;;;;;;0.10;0.10;;;12.10;99.90;;;;;;5069433;28;20033;-82
2022/12/24 08:38:17;;;;;;;0.45;0.45;;;12.20;99.90;;;;;;5069637;28;21738;-81
2022/12/24 08:40:44;;;;;;;0.17;0.17;;;12.40;99.90;;;;;;5067420;28;20093;-82
2022/12/24 08:43:09;;;;;;;0.20;0.20;;;12.40;99.90;;;;;;5068377;28;20044;-82
2022/12/24 08:45:37;;;;;;;0.10;0.10;;;12.70;99.90;;;;;;5067306;28;20252;-83
2022/12/24 08:48:03;;;;;;;0.22;0.20;;;13.10;99.90;;;;;;5069959;28;20028;-83
2022/12/24 08:50:28;;;;;;;0.10;0.10;;;13.00;99.90;;;;;;5060146;28;20988;-82
2022/12/24 08:52:54;;;;;;;0.30;0.30;;;13.20;99.90;;;;;;5065648;28;20032;-79
2022/12/24 08:55:20;;;;;;;0.10;0.10;;;13.50;99.90;;;;;;5062254;28;20059;-81
2022/12/24 08:57:45;;;;;;;0.30;0.30;;;13.80;99.90;;;;;;5055822;28;20145;-81
2022/12/24 09:00:13;;;;;;;0.17;0.17;;;13.70;99.90;;;;;;5056343;28;20040;-80
2022/12/24 09:02:39;;;;;;;0.10;0.10;;;13.80;99.90;;;;;;5055368;28;20106;-80
2022/12/24 09:05:05;;;;;;;0.00;0.00;;;13.80;99.90;;;;;;5054046;28;20028;-80
2022/12/24 09:07:31;;;;;;;4.28;1.20;;;13.90;99.90;;;;;;5057282;28;20583;-80
2022/12/24 09:09:57;;;;;;;0.10;0.10;;;13.90;99.90;;;;;;5053833;28;20125;-81
2022/12/24 09:12:22;;;;;;;0.60;0.60;;;13.50;99.90;;;;;;5053910;28;20674;-86
2022/12/24 09:14:49;;;;;;;;;;;13.30;99.90;;;;;;5065762;28;20064;-78
2022/12/24 09:17:15;;;;;;;0.10;0.10;;;13.30;99.90;;;;;;5052627;28;19912;-82
2022/12/24 09:19:41;;;;;;;0.23;0.23;;;13.40;99.90;;;;;;5055173;28;20062;-82
2022/12/24 09:22:06;;;;;;;0.13;0.13;;;13.50;99.90;;;;;;5065563;28;20031;-82
2022/12/24 09:24:34;;;;;;;0.20;0.20;;;13.60;99.90;;;;;;5053975;28;20067;-83
2022/12/24 09:27:01;;;;;;;0.10;0.10;;;13.60;99.90;;;;;;5055868;28;20393;-83
2022/12/24 09:29:27;;;;;;;1.27;0.65;;;13.50;99.90;;;;;;5067871;28;20040;-81
2022/12/24 09:31:54;;;;;;;0.10;0.10;;;13.40;99.90;;;;;;5053629;28;20025;-83
2022/12/24 09:34:20;;;;;;;0.25;0.25;;;13.30;99.90;;;;;;5052319;28;20024;-83
2022/12/24 09:36:45;;;;;;;0.10;0.10;;;13.20;99.90;;;;;;5064576;28;20128;-82
2022/12/24 09:39:11;;;;;;;0.30;0.28;;;13.30;99.90;;;;;;5054824;28;20136;-82
2022/12/24 09:41:59;;;;;;;0.30;0.22;;;13.30;99.90;;;;;;5056286;28;20036;-81
2022/12/24 09:44:44;;;;;;;0.45;0.45;;;13.30;99.90;;;;;;5053624;28;20036;-81
2022/12/24 09:47:33;;;;;;;0.40;0.40;;;13.20;99.90;;;;;;5050373;28;20035;-82
2022/12/24 09:50:02;;;;;;;4.57;0.30;;;13.30;99.90;;;;;;5051025;28;20024;-83
2022/12/24 09:52:44;;;;;;;0.73;0.73;;;13.20;99.90;;;;;;5059028;28;20028;-83
2022/12/24 09:55:12;;;;;;;0.20;0.20;;;13.20;99.90;;;;;;5058647;28;20043;-83
2022/12/24 09:57:40;;;;;;;0.10;0.10;;;13.30;99.90;;;;;;5063950;28;21033;-83
2022/12/24 10:00:32;;;;;;;0.10;0.10;;;13.30;99.90;;;;;;5059408;28;20039;-83
2022/12/24 10:02:58;;;;;;;0.10;0.10;;;13.30;99.90;;;;;;5052086;28;20032;-83
2022/12/24 10:06:04;;;;;;;0.20;0.20;;;13.30;99.90;;;;;;5059949;28;20696;-83
2022/12/24 10:08:34;;;;;;;1.00;0.90;;;13.30;99.90;;;;;;5061152;28;20040;-83
2022/12/24 10:11:09;;;;;;;0.10;0.10;;;13.30;99.90;;;;;;5056046;28;20036;-83
2022/12/24 10:13:50;;;;;;;0.10;0.10;;;13.40;99.90;;;;;;5059379;28;20064;-83
2022/12/24 10:16:36;;;;;;;0.15;0.15;;;13.40;99.90;;;;;;5061928;28;20046;-82
2022/12/24 10:19:18;;;;;;;0.10;0.10;;;13.40;99.90;;;;;;5047877;28;20044;-83
2022/12/24 10:22:11;;;;;;;0.30;0.30;;;13.40;99.90;;;;;;5055617;28;20112;-82
2022/12/24 10:24:58;;;;;;;0.50;0.50;;;13.60;99.90;;;;;;5055456;28;20117;-83
2022/12/24 10:27:29;;;;;;;0.40;0.40;;;13.70;99.90;;;;;;5053104;28;20050;-82
2022/12/24 10:30:16;;;;;;;0.22;0.22;;;13.80;99.90;;;;;;5054820;28;20124;-83
2022/12/24 10:32:42;;;;;;;0.35;0.35;;;13.90;99.90;;;;;;5050885;28;20033;-82
2022/12/24 10:35:16;;;;;;;0.15;0.15;;;14.10;99.90;;;;;;5051392;28;20041;-82
2022/12/24 10:37:47;;;;;;;0.10;0.10;;;14.10;99.90;;;;;;5062525;28;20028;-82
2022/12/24 10:40:40;;;;;;;0.52;0.52;;;14.20;99.90;;;;;;5055353;28;20032;-83
2022/12/24 10:43:27;;;;;;;0.30;0.30;;;14.20;99.90;;;;;;5051326;28;20036;-83
2022/12/24 10:45:57;;;;;;;2.05;0.32;;;14.10;99.90;;;;;;5058677;28;20078;-83
2022/12/24 10:48:37;;;;;;;2.80;0.75;;;13.90;99.90;;;;;;5052126;28;20166;-84
2022/12/24 10:51:12;;;;;;;0.10;0.10;;;13.80;99.90;;;;;;5048067;28;20021;-85
2022/12/24 10:53:40;;;;;;;0.45;0.25;;;13.90;99.90;;;;;;5056802;28;20039;-84
2022/12/24 10:56:09;;;;;;;0.35;0.35;;;13.90;99.90;;;;;;5055601;28;20032;-83
2022/12/24 10:58:36;;;;;;;0.13;0.13;;;14.00;99.90;;;;;;5052563;28;20035;-83
2022/12/24 11:01:02;;;;;;;0.10;0.10;;;14.10;99.90;;;;;;5058325;28;20412;-81
2022/12/24 11:03:31;;;;;;;0.63;0.55;;;14.00;99.90;;;;;;5057102;28;20028;-82
2022/12/24 11:06:07;;;;;;;3.83;0.40;;;14.20;99.90;;;;;;5055743;28;20028;-82
2022/12/24 11:08:34;;;;;;;0.20;0.20;;;14.30;99.90;;;;;;5049369;28;20045;-80
2022/12/24 11:11:11;;;;;;;0.20;0.20;;;14.30;99.90;;;;;;5053872;28;20033;-80
2022/12/24 11:13:37;;;;;;;;;;;14.30;99.90;;;;;;5055911;28;20029;-81
2022/12/24 11:16:21;;;;;;;0.20;0.20;;;14.40;99.90;;;;;;5050580;28;19916;-80
2022/12/24 11:19:00;;;;;;;0.35;0.35;;;14.70;99.90;;;;;;5051411;28;20036;-80
2022/12/24 11:21:44;;;;;;;0.13;0.13;;;14.70;99.90;;;;;;5071517;28;20114;-78
2022/12/24 11:24:13;;;;;;;0.28;0.28;;;14.70;99.90;;;;;;5051944;28;20029;-84
2022/12/24 11:26:41;;;;;;;0.47;0.17;;;14.50;99.90;;;;;;5050335;28;20028;-81
2022/12/24 11:29:16;;;;;;;1.65;0.75;;;14.40;99.90;;;;;;5059409;28;20059;-79
2022/12/24 11:31:43;;;;;;;0.30;0.30;;;14.50;99.90;;;;;;5048407;28;20322;-78
2022/12/24 11:34:18;;;;;;;0.40;0.40;;;14.50;99.90;;;;;;5051519;28;20082;-78
2022/12/24 11:36:44;;;;;;;2.45;1.20;;;14.30;99.90;;;;;;5053025;28;20028;-79
2022/12/24 11:39:19;;;;;;;0.10;0.10;;;14.00;99.90;;;;;;5052817;28;20039;-79
2022/12/24 11:41:45;;;;;;;9.90;0.73;;;13.90;99.90;;;;;;5059762;28;20079;-78
2022/12/24 11:44:11;;;;;;;0.30;0.30;;;13.80;99.90;;;;;;5050819;28;20532;-79
2022/12/24 11:46:45;;;;;;;0.17;0.10;;;13.80;99.90;;;;;;5061383;28;20147;-79
2022/12/24 11:49:10;;;;;;;0.05;0.05;;;13.80;99.90;;;;;;5050228;28;20111;-80
2022/12/24 11:51:39;;;;;;;0.10;0.10;;;13.90;99.90;;;;;;5050840;28;20104;-79
2022/12/24 11:54:15;;;;;;;0.00;0.00;;;13.90;99.90;;;;;;5047217;28;20588;-80
2022/12/24 11:56:52;;;;;;;;;;;14.00;99.90;;;;;;5052163;28;20039;-81
2022/12/24 11:59:29;;;;;;;0.00;0.00;;;14.00;99.90;;;;;;5048201;28;19936;-82
2022/12/24 12:02:20;;;;;;;3.65;0.95;;;14.10;99.90;;;;;;5050186;28;20029;-82
2022/12/24 12:04:53;;;;;;;0.22;0.22;;;14.10;99.90;;;;;;5047530;28;20044;-85
2022/12/24 12:07:30;;;;;;;0.65;0.63;;;14.20;99.90;;;;;;5052499;28;21327;-85
2022/12/24 12:10:15;;;;;;;0.52;0.52;;;14.20;99.90;;;;;;5053012;28;20798;-85
2022/12/24 12:12:45;;;;;;;0.13;0.10;;;14.10;99.90;;;;;;5048130;28;20028;-84
2022/12/24 12:15:19;;;;;;;0.25;0.25;;;14.20;99.90;;;;;;5047339;28;20689;-84
2022/12/24 12:17:59;;;;;;;0.20;0.20;;;14.20;99.90;;;;;;5061919;28;20031;-87
2022/12/24 12:20:31;;;;;;;0.10;0.10;;;14.20;99.90;;;;;;5052926;28;20029;-83
2022/12/24 12:23:19;;;;;;;1.13;0.95;;;14.30;99.90;;;;;;5049718;28;20031;-85
2022/12/24 12:26:01;;;;;;;0.25;0.25;;;14.40;99.90;;;;;;5047925;28;20517;-81
2022/12/24 12:28:57;;;;;;;0.15;0.15;;;14.50;99.90;;;;;;5062453;28;20020;-80
2022/12/24 12:31:26;;;;;;;;;;;14.50;99.90;;;;;;5049651;28;20044;-81
2022/12/24 12:34:16;;;;;;;0.20;0.20;;;14.40;99.90;;;;;;5047564;28;19920;-81
2022/12/24 12:36:52;;;;;;;0.60;0.60;;;14.40;99.90;;;;;;5053397;28;20032;-82
2022/12/24 12:39:17;;;;;;;2.30;0.73;;;14.30;99.90;;;;;;5047517;28;20029;-81
2022/12/24 12:42:21;;;;;;;0.22;0.22;;;14.30;99.90;;;;;;5062729;28;20032;-82
2022/12/24 12:44:56;;;;;;;0.38;0.38;;;14.40;99.90;;;;;;5057417;28;20144;-80
2022/12/24 12:48:00;;;;;;;0.20;0.20;;;14.30;99.90;;;;;;5047929;28;20044;-82
2022/12/24 12:50:26;;;;;;;0.13;0.13;;;14.20;99.90;;;;;;5023269;28;20155;-84
2022/12/24 12:53:10;;;;;;;0.10;0.10;;;14.20;99.90;;;;;;5038675;28;20115;-82
2022/12/24 12:55:56;;;;;;;0.28;0.28;;;14.30;99.90;;;;;;5050616;28;20521;-81
2022/12/24 12:58:38;;;;;;;0.55;0.55;;;14.30;99.90;;;;;;5058323;28;20040;-85
2022/12/24 13:01:20;;;;;;;0.20;0.20;;;14.20;99.90;;;;;;5056476;28;20033;-82
2022/12/24 13:04:15;;;;;;;0.38;0.38;;;14.20;99.90;;;;;;5053063;28;20063;-82
2022/12/24 13:07:12;;;;;;;2.50;1.20;;;14.20;99.90;;;;;;5067170;28;20175;-81
2022/12/24 13:10:05;;;;;;;0.10;0.10;;;14.10;99.90;;;;;;5066440;28;20446;-82
2022/12/24 13:12:31;;;;;;;0.75;0.50;;;14.00;99.90;;;;;;5067346;28;20024;-80
2022/12/24 13:15:06;;;;;;;0.30;0.30;;;14.10;99.90;;;;;;5054343;28;20032;-80
2022/12/24 13:18:20;;;;;;;0.10;0.10;;;14.20;99.90;;;;;;5055645;28;20028;-81
2022/12/24 13:20:50;;;;;;;0.45;0.45;;;14.10;99.90;;;;;;5051523;28;21292;-80